createdAt,value
2023-02-22T00:01:19.225Z,4.30
2023-02-22T00:04:21.544Z,4.03
2023-02-22T00:07:24.030Z,4.50
2023-02-22T00:10:26.527Z,4.82
2023-02-22T00:13:29.334Z,4.75
2023-02-22T00:16:31.840Z,4.50
2023-02-22T00:19:34.142Z,4.07
2023-02-22T00:22:36.110Z,4.53
2023-02-22T00:25:38.375Z,3.97
2023-02-22T00:28:42.472Z,5.07
2023-02-22T00:31:45.066Z,4.72
2023-02-22T00:34:48.108Z,4.97
2023-02-22T00:37:53.882Z,4.63
2023-02-22T00:40:55.929Z,4.63
2023-02-22T00:43:59.829Z,5.20
2023-02-22T00:47:01.917Z,4.72
2023-02-22T00:50:04.520Z,5.57
2023-02-22T00:53:07.456Z,4.85
2023-02-22T00:56:09.910Z,4.85
2023-02-22T00:59:11.868Z,5.87
2023-02-22T01:02:13.860Z,5.22
2023-02-22T01:05:16.614Z,6.28
2023-02-22T01:08:19.241Z,5.53
2023-02-22T01:11:22.445Z,4.90
2023-02-22T01:14:26.700Z,5.38
2023-02-22T01:17:28.710Z,5.22
2023-02-22T01:20:30.786Z,5.00
2023-02-22T01:23:32.977Z,4.63
2023-02-22T01:26:35.537Z,5.18
2023-02-22T01:29:39.244Z,5.40
2023-02-22T01:32:42.251Z,6.20
2023-02-22T01:35:46.232Z,6.53
2023-02-22T01:38:48.351Z,5.90
2023-02-22T01:41:50.368Z,5.90
2023-02-22T01:45:10.760Z,7.03
2023-02-22T01:48:31.008Z,7.05
2023-02-22T01:51:37.978Z,6.37
2023-02-22T01:54:46.311Z,6.90
2023-02-22T01:57:48.311Z,6.65
2023-02-22T02:00:50.558Z,7.33
2023-02-22T02:03:53.216Z,7.20
2023-02-22T02:06:56.424Z,6.50
2023-02-22T02:10:02.358Z,6.47
2023-02-22T02:13:04.340Z,6.63
2023-02-22T02:16:06.429Z,7.05
2023-02-22T02:19:12.154Z,6.78
2023-02-22T02:22:25.555Z,6.90
2023-02-22T02:25:27.950Z,7.00
2023-02-22T02:28:36.363Z,6.38
2023-02-22T02:31:57.331Z,7.27
2023-02-22T02:35:13.293Z,6.72
2023-02-22T02:38:18.513Z,7.03
2023-02-22T02:41:21.867Z,7.28
2023-02-22T02:44:44.559Z,7.30
2023-02-22T02:47:47.937Z,6.85
2023-02-22T02:50:50.375Z,6.65
2023-02-22T02:53:52.469Z,7.07
2023-02-22T02:56:54.842Z,7.22
2023-02-22T02:59:57.238Z,7.32
2023-02-22T03:03:17.990Z,7.07
2023-02-22T03:06:23.096Z,7.78
2023-02-22T03:09:25.315Z,7.70
2023-02-22T03:12:32.372Z,7.10
2023-02-22T03:15:41.482Z,6.97
2023-02-22T03:19:10.169Z,7.68
2023-02-22T03:22:20.844Z,6.70
2023-02-22T03:25:25.213Z,7.83
2023-02-22T03:28:33.661Z,7.43
2023-02-22T03:31:38.185Z,7.50
2023-02-22T03:34:44.273Z,8.07
2023-02-22T03:37:47.307Z,7.65
2023-02-22T03:40:51.036Z,8.05
2023-02-22T03:44:13.697Z,8.13
2023-02-22T03:47:18.374Z,7.97
2023-02-22T03:50:21.487Z,7.93
2023-02-22T03:53:23.886Z,8.73
2023-02-22T03:56:28.476Z,8.33
2023-02-22T03:59:30.732Z,9.80
2023-02-22T04:02:33.188Z,9.57
2023-02-22T04:05:35.234Z,9.07
2023-02-22T04:08:37.442Z,8.25
2023-02-22T04:11:40.102Z,7.93
2023-02-22T04:14:42.221Z,6.78
2023-02-22T04:17:44.294Z,7.63
2023-02-22T04:20:49.169Z,8.05
2023-02-22T04:24:01.231Z,7.95
2023-02-22T04:27:03.852Z,8.30
2023-02-22T04:30:08.355Z,8.63
2023-02-22T04:33:12.222Z,8.13
2023-02-22T04:36:16.188Z,7.30
2023-02-22T04:39:19.925Z,7.20
2023-02-22T04:42:22.061Z,7.05
2023-02-22T04:45:27.036Z,8.48
2023-02-22T04:48:29.792Z,8.52
2023-02-22T04:51:32.014Z,8.65
2023-02-22T04:54:40.264Z,8.23
2023-02-22T04:57:42.682Z,9.73
2023-02-22T05:00:44.752Z,8.95
2023-02-22T05:03:47.183Z,7.80
2023-02-22T05:06:49.926Z,8.30
2023-02-22T05:09:52.052Z,9.23
2023-02-22T05:12:54.235Z,10.63
2023-02-22T05:15:56.336Z,10.40
2023-02-22T05:18:58.738Z,10.10
2023-02-22T05:22:01.300Z,10.95
2023-02-22T05:25:03.765Z,10.18
2023-02-22T05:28:09.312Z,9.70
2023-02-22T05:31:11.420Z,10.32
2023-02-22T05:34:14.450Z,9.57
2023-02-22T05:37:16.875Z,8.60
2023-02-22T05:40:19.999Z,9.05
2023-02-22T05:43:22.071Z,10.10
2023-02-22T05:46:25.326Z,9.30
2023-02-22T05:49:27.552Z,9.00
2023-02-22T05:52:29.608Z,10.38
2023-02-22T05:55:32.264Z,10.40
2023-02-22T05:58:34.499Z,10.20
2023-02-22T06:01:36.627Z,9.45
2023-02-22T06:04:40.199Z,9.88
2023-02-22T06:07:43.315Z,9.53
2023-02-22T06:10:45.588Z,9.65
2023-02-22T06:13:51.753Z,9.35
2023-02-22T06:16:54.474Z,10.98
2023-02-22T06:19:57.049Z,9.73
2023-02-22T06:22:59.245Z,11.60
2023-02-22T06:26:01.459Z,11.73
2023-02-22T06:29:05.957Z,12.40
2023-02-22T06:32:08.140Z,11.27
2023-02-22T06:35:10.210Z,11.25
2023-02-22T06:38:12.394Z,11.27
2023-02-22T06:41:15.793Z,11.35
2023-02-22T06:44:18.274Z,11.45
2023-02-22T06:47:20.669Z,11.68
2023-02-22T06:50:24.390Z,13.80
2023-02-22T06:53:26.830Z,14.73
2023-02-22T06:56:29.135Z,14.88
2023-02-22T06:59:31.263Z,17.07
2023-02-22T07:02:33.387Z,20.42
2023-02-22T07:05:35.537Z,20.52
2023-02-22T07:08:38.069Z,17.80
2023-02-22T07:11:40.482Z,18.88
2023-02-22T07:14:42.662Z,16.75
2023-02-22T07:17:44.954Z,15.55
2023-02-22T07:20:47.111Z,13.95
2023-02-22T07:23:53.328Z,14.75
2023-02-22T07:26:55.916Z,14.20
2023-02-22T07:30:06.339Z,16.03
2023-02-22T07:33:10.641Z,14.52
2023-02-22T07:36:14.873Z,12.98
2023-02-22T07:39:16.947Z,14.47
2023-02-22T07:42:19.158Z,12.43
2023-02-22T07:45:21.957Z,11.43
2023-02-22T07:48:27.671Z,10.95
2023-02-22T07:51:39.177Z,10.38
2023-02-22T07:54:41.252Z,11.65
2023-02-22T07:57:44.222Z,11.63
2023-02-22T08:00:49.691Z,10.00
2023-02-22T08:03:52.796Z,9.25
2023-02-22T08:06:54.950Z,8.77
2023-02-22T08:09:56.965Z,8.07
2023-02-22T08:12:59.686Z,8.70
2023-02-22T08:16:01.652Z,8.15
2023-02-22T08:19:04.235Z,8.60
2023-02-22T08:22:06.621Z,9.67
2023-02-22T08:25:08.956Z,9.60
2023-02-22T08:28:11.992Z,9.13
2023-02-22T08:31:14.250Z,8.43
2023-02-22T08:34:16.452Z,8.20
2023-02-22T08:37:18.914Z,8.30
2023-02-22T08:40:21.993Z,7.55
2023-02-22T08:43:24.129Z,8.10
2023-02-22T08:46:26.204Z,9.98
2023-02-22T08:49:28.784Z,7.00
2023-02-22T08:52:30.803Z,7.43
2023-02-22T08:55:33.922Z,7.25
2023-02-22T08:58:36.009Z,7.22
2023-02-22T09:01:38.905Z,7.43
2023-02-22T09:04:41.164Z,6.97
2023-02-22T09:07:43.429Z,7.55
2023-02-22T09:10:45.499Z,7.00
2023-02-22T09:13:47.630Z,8.40
2023-02-22T09:16:50.239Z,7.33
2023-02-22T09:19:52.766Z,7.63
2023-02-22T09:22:55.339Z,7.55
2023-02-22T09:26:00.138Z,7.20
2023-02-22T09:29:02.215Z,7.38
2023-02-22T09:32:04.552Z,6.77
2023-02-22T09:35:08.762Z,7.53
2023-02-22T09:38:11.555Z,6.88
2023-02-22T09:41:19.821Z,7.13
2023-02-22T09:44:43.137Z,7.72
2023-02-22T09:47:46.730Z,7.17
2023-02-22T09:50:49.305Z,7.20
2023-02-22T09:53:52.388Z,7.50
2023-02-22T09:56:56.032Z,6.55
2023-02-22T10:00:01.124Z,7.25
2023-02-22T10:03:07.162Z,6.80
2023-02-22T10:06:29.983Z,6.95
2023-02-22T10:09:33.301Z,6.50
2023-02-22T10:12:42.203Z,6.32
2023-02-22T10:15:44.815Z,7.32
2023-02-22T10:19:15.279Z,6.90
2023-02-22T10:22:23.912Z,7.15
2023-02-22T10:25:27.729Z,7.13
2023-02-22T10:28:38.082Z,6.93
2023-02-22T10:31:44.346Z,6.93
2023-02-22T10:34:51.773Z,6.17
2023-02-22T10:37:57.141Z,7.30
2023-02-22T10:41:01.219Z,6.65
2023-02-22T10:44:03.861Z,7.13
2023-02-22T10:47:06.823Z,6.63
2023-02-22T10:50:12.655Z,12.73
2023-02-22T10:53:15.535Z,80.72
2023-02-22T10:56:21.664Z,55.28
2023-02-22T10:59:28.019Z,9.70
2023-02-22T11:02:35.241Z,6.57
2023-02-22T11:05:38.568Z,5.93
2023-02-22T11:08:41.597Z,6.15
2023-02-22T11:11:51.743Z,7.57
2023-02-22T11:14:53.802Z,8.45
2023-02-22T11:17:56.264Z,7.47
2023-02-22T11:21:02.519Z,7.77
2023-02-22T11:24:09.166Z,7.65
2023-02-22T11:27:11.275Z,6.75
2023-02-22T11:30:25.650Z,6.88
2023-02-22T11:33:29.429Z,11.13
2023-02-22T11:36:37.982Z,6.47
2023-02-22T11:39:43.804Z,6.50
2023-02-22T11:42:46.331Z,6.15
2023-02-22T11:46:08.576Z,5.97
2023-02-22T11:49:11.812Z,5.50
2023-02-22T11:52:34.878Z,6.43
2023-02-22T11:55:56.433Z,6.60
2023-02-22T11:59:02.842Z,6.63
2023-02-22T12:02:15.168Z,7.75
2023-02-22T12:05:40.627Z,8.07
2023-02-22T12:08:42.622Z,7.93
2023-02-22T12:11:51.582Z,7.13
2023-02-22T12:15:00.015Z,6.25
2023-02-22T12:18:24.169Z,6.22
2023-02-22T12:21:26.681Z,6.38
2023-02-22T12:24:36.997Z,8.03
2023-02-22T12:27:49.393Z,8.00
2023-02-22T12:31:20.925Z,7.53
2023-02-22T12:34:38.545Z,6.60
2023-02-22T12:37:50.482Z,7.22
2023-02-22T12:41:01.576Z,6.53
2023-02-22T12:44:24.939Z,6.50
2023-02-22T12:47:31.982Z,7.80
2023-02-22T12:50:34.618Z,7.35
2023-02-22T12:53:38.356Z,7.38
2023-02-22T12:56:46.468Z,7.17
2023-02-22T12:59:49.061Z,7.97
2023-02-22T13:02:59.023Z,8.00
2023-02-22T13:06:05.230Z,7.63
2023-02-22T13:09:16.366Z,10.05
2023-02-22T13:12:33.385Z,8.10
2023-02-22T13:15:54.865Z,7.43
2023-02-22T13:19:03.807Z,7.72
2023-02-22T13:22:08.769Z,8.40
2023-02-22T13:25:14.582Z,7.28
2023-02-22T13:28:20.269Z,7.90
2023-02-22T13:31:24.391Z,6.85
2023-02-22T13:34:27.656Z,7.18
2023-02-22T13:37:48.941Z,6.90
2023-02-22T13:41:09.966Z,6.65
2023-02-22T13:44:21.533Z,6.77
2023-02-22T13:47:42.731Z,7.30
2023-02-22T13:50:45.017Z,6.55
2023-02-22T13:53:56.042Z,7.70
2023-02-22T13:56:58.570Z,9.45
2023-02-22T14:00:16.151Z,7.37
2023-02-22T14:03:30.117Z,7.50
2023-02-22T14:06:38.901Z,7.80
2023-02-22T14:09:48.520Z,8.98
2023-02-22T14:12:50.798Z,7.40
2023-02-22T14:16:05.293Z,8.30
2023-02-22T14:19:13.447Z,7.68
2023-02-22T14:22:15.742Z,8.07
2023-02-22T14:25:30.390Z,8.38
2023-02-22T14:28:33.666Z,8.90
2023-02-22T14:31:37.831Z,9.17
2023-02-22T14:34:40.151Z,9.60
2023-02-22T14:37:42.662Z,9.48
2023-02-22T14:40:44.743Z,9.07
2023-02-22T14:43:46.877Z,9.95
2023-02-22T14:46:50.207Z,12.30
2023-02-22T14:49:52.384Z,12.75
2023-02-22T14:53:00.550Z,12.32
2023-02-22T14:56:04.252Z,9.93
2023-02-22T14:59:08.081Z,9.90
2023-02-22T15:02:13.722Z,10.43
2023-02-22T15:05:16.611Z,10.55
2023-02-22T15:08:18.811Z,10.35
2023-02-22T15:11:22.206Z,10.65
2023-02-22T15:14:26.697Z,10.52
2023-02-22T15:17:29.507Z,10.07
2023-02-22T15:20:32.172Z,10.40
2023-02-22T15:23:41.804Z,10.30
2023-02-22T15:27:00.200Z,10.25
2023-02-22T15:30:15.997Z,9.10
2023-02-22T15:33:24.266Z,11.20
2023-02-22T15:36:28.102Z,12.85
2023-02-22T15:39:33.301Z,11.68
2023-02-22T15:42:42.133Z,12.77
2023-02-22T15:45:45.135Z,18.08
2023-02-22T15:49:03.529Z,13.47
2023-02-22T15:52:06.853Z,18.02
2023-02-22T15:55:10.293Z,15.05
2023-02-22T15:58:30.605Z,32.78
2023-02-22T16:01:36.762Z,18.02
2023-02-22T16:04:39.687Z,17.00
2023-02-22T16:07:45.404Z,20.77
2023-02-22T16:11:13.726Z,20.08
2023-02-22T16:14:28.651Z,14.55
2023-02-22T16:17:56.032Z,15.52
2023-02-22T16:21:13.200Z,13.60
2023-02-22T16:24:25.531Z,13.05
2023-02-22T16:27:28.194Z,13.98
2023-02-22T16:30:52.912Z,13.65
2023-02-22T16:33:55.022Z,11.63
2023-02-22T16:36:57.197Z,14.13
2023-02-22T16:39:59.591Z,14.32
2023-02-22T16:43:02.237Z,14.90
2023-02-22T16:46:04.547Z,14.60
2023-02-22T16:49:06.671Z,16.88
2023-02-22T16:52:08.816Z,19.97
2023-02-22T16:55:11.606Z,16.77
2023-02-22T16:58:13.889Z,14.48
2023-02-22T17:01:16.746Z,15.98
2023-02-22T17:04:24.154Z,27.10
2023-02-22T17:07:35.531Z,22.63
2023-02-22T17:10:38.121Z,16.58
2023-02-22T17:13:44.272Z,10.25
2023-02-22T17:16:47.235Z,8.35
2023-02-22T17:19:49.325Z,8.68
2023-02-22T17:22:51.907Z,8.53
2023-02-22T17:25:55.175Z,9.20
2023-02-22T17:28:57.921Z,8.60
2023-02-22T17:32:00.565Z,7.47
2023-02-22T17:35:02.718Z,8.10
2023-02-22T17:38:08.391Z,7.63
2023-02-22T17:41:10.441Z,8.30
2023-02-22T17:44:12.559Z,8.90
2023-02-22T17:47:14.757Z,8.13
2023-02-22T17:50:17.016Z,7.83
2023-02-22T17:53:21.818Z,7.68
2023-02-22T17:56:24.448Z,7.80
2023-02-22T17:59:26.680Z,9.00
2023-02-22T18:02:28.728Z,10.40
2023-02-22T18:05:33.053Z,21.00
2023-02-22T18:08:35.684Z,12.13
2023-02-22T18:11:37.992Z,9.10
2023-02-22T18:14:40.897Z,8.02
2023-02-22T18:17:43.008Z,5.70
2023-02-22T18:20:45.247Z,6.15
2023-02-22T18:23:47.449Z,11.05
2023-02-22T18:26:50.512Z,10.52
2023-02-22T18:29:52.603Z,9.50
2023-02-22T18:32:54.835Z,8.88
2023-02-22T18:35:59.620Z,7.55
2023-02-22T18:39:03.284Z,8.20
2023-02-22T18:42:05.620Z,9.93
2023-02-22T18:45:08.017Z,10.68
2023-02-22T18:48:10.427Z,8.15
2023-02-22T18:51:13.075Z,8.20
2023-02-22T18:54:15.368Z,9.20
2023-02-22T18:57:17.391Z,9.50
2023-02-22T19:00:24.207Z,9.07
2023-02-22T19:03:26.601Z,7.27
2023-02-22T19:06:28.721Z,6.43
2023-02-22T19:09:30.747Z,7.28
2023-02-22T19:12:33.842Z,7.50
2023-02-22T19:15:36.251Z,7.97
2023-02-22T19:18:38.786Z,7.45
2023-02-22T19:21:40.887Z,8.18
2023-02-22T19:24:43.581Z,8.38
2023-02-22T19:27:45.584Z,7.63
2023-02-22T19:30:47.588Z,8.13
2023-02-22T19:33:53.877Z,7.28
2023-02-22T19:36:58.336Z,7.03
2023-02-22T19:40:01.352Z,9.93
2023-02-22T19:43:03.565Z,9.88
2023-02-22T19:46:06.329Z,11.80
2023-02-22T19:49:08.547Z,18.30
2023-02-22T19:52:10.628Z,16.30
2023-02-22T19:55:12.945Z,17.50
2023-02-22T19:58:15.456Z,10.35
2023-02-22T20:01:23.027Z,8.30
2023-02-22T20:04:25.787Z,7.23
2023-02-22T20:07:27.925Z,7.35
2023-02-22T20:10:30.582Z,9.38
2023-02-22T20:13:32.715Z,8.27
2023-02-22T20:16:35.421Z,9.37
2023-02-22T20:19:38.786Z,7.28
2023-02-22T20:22:40.824Z,7.45
2023-02-22T20:25:42.762Z,8.05
2023-02-22T20:28:44.979Z,8.97
2023-02-22T20:31:53.576Z,9.68
2023-02-22T20:34:57.219Z,9.40
2023-02-22T20:37:59.129Z,8.13
2023-02-22T20:41:01.124Z,7.53
2023-02-22T20:44:03.233Z,6.40
2023-02-22T20:47:05.335Z,6.22
2023-02-22T20:50:08.258Z,7.05
2023-02-22T20:53:10.198Z,6.83
2023-02-22T20:56:13.960Z,6.82
2023-02-22T20:59:16.468Z,6.38
2023-02-22T21:02:18.411Z,6.68
2023-02-22T21:05:20.746Z,7.30
2023-02-22T21:08:23.212Z,6.40
2023-02-22T21:11:25.885Z,6.88
2023-02-22T21:14:29.684Z,7.85
